createdAt,value
2023-01-01T00:00:48.786Z,19.60
2023-01-01T00:03:18.309Z,21.83
2023-01-01T00:05:45.684Z,23.48
2023-01-01T00:08:13.012Z,30.75
2023-01-01T00:10:40.426Z,33.10
2023-01-01T00:13:13.597Z,36.13
2023-01-01T00:15:43.244Z,39.13
2023-01-01T00:18:10.612Z,38.90
2023-01-01T00:20:37.742Z,37.15
2023-01-01T00:23:05.573Z,39.42
2023-01-01T00:25:35.327Z,37.13
2023-01-01T00:28:03.052Z,38.63
2023-01-01T00:30:30.479Z,36.40
2023-01-01T00:33:02.627Z,36.03
2023-01-01T00:35:31.729Z,35.83
2023-01-01T00:37:58.972Z,34.78
2023-01-01T00:40:26.202Z,34.50
2023-01-01T00:42:53.877Z,32.90
2023-01-01T00:45:22.774Z,32.75
2023-01-01T00:47:52.750Z,32.40
2023-01-01T00:50:23.680Z,30.40
2023-01-01T00:52:53.611Z,30.48
2023-01-01T00:55:25.769Z,27.50
2023-01-01T00:57:53.141Z,28.57
2023-01-01T01:00:20.897Z,27.60
2023-01-01T01:02:48.380Z,27.65
2023-01-01T01:05:21.831Z,26.65
2023-01-01T01:07:52.086Z,23.55
2023-01-01T01:10:26.193Z,24.20
2023-01-01T01:12:56.553Z,19.65
2023-01-01T01:15:23.801Z,18.15
2023-01-01T01:17:54.582Z,19.40
2023-01-01T01:20:22.648Z,17.45
2023-01-01T01:22:50.306Z,16.15
2023-01-01T01:25:17.737Z,15.75
2023-01-01T01:27:46.294Z,15.50
2023-01-01T01:30:15.600Z,14.00
2023-01-01T01:32:47.626Z,12.60
2023-01-01T01:35:14.949Z,14.73
2023-01-01T01:37:42.111Z,13.60
2023-01-01T01:40:15.772Z,11.98
2023-01-01T01:42:47.128Z,11.52
2023-01-01T01:45:18.381Z,10.88
2023-01-01T01:47:58.146Z,9.93
2023-01-01T01:50:30.384Z,9.18
2023-01-01T01:53:09.761Z,10.82
2023-01-01T01:55:43.486Z,10.52
2023-01-01T01:58:13.334Z,10.20
2023-01-01T02:00:41.264Z,10.50
2023-01-01T02:03:17.066Z,11.13
2023-01-01T02:05:44.775Z,11.55
2023-01-01T02:08:14.620Z,11.60
2023-01-01T02:10:42.514Z,14.35
2023-01-01T02:13:10.495Z,13.55
2023-01-01T02:15:47.813Z,14.40
2023-01-01T02:18:21.641Z,16.27
2023-01-01T02:21:01.123Z,15.88
2023-01-01T02:24:01.164Z,15.55
2023-01-01T02:27:13.650Z,16.75
2023-01-01T02:30:07.843Z,16.05
2023-01-01T02:32:41.496Z,16.80
2023-01-01T02:35:36.369Z,17.23
2023-01-01T02:38:18.285Z,18.17
2023-01-01T02:40:52.841Z,17.27
2023-01-01T02:43:24.569Z,18.30
2023-01-01T02:45:57.104Z,18.75
2023-01-01T02:48:48.623Z,20.00
2023-01-01T02:51:49.867Z,17.67
2023-01-01T02:54:20.105Z,18.38
2023-01-01T02:56:56.698Z,20.00
2023-01-01T02:59:57.590Z,18.60
2023-01-01T03:02:48.696Z,18.95
2023-01-01T03:06:23.690Z,18.92
2023-01-01T03:09:19.213Z,17.95
2023-01-01T03:11:55.348Z,21.00
2023-01-01T03:14:44.842Z,16.80
2023-01-01T03:17:32.745Z,18.15
2023-01-01T03:20:06.419Z,16.98
2023-01-01T03:25:08.571Z,16.33
2023-01-01T03:27:47.098Z,16.80
2023-01-01T03:30:16.932Z,15.82
2023-01-01T03:33:01.165Z,15.25
2023-01-01T03:35:35.365Z,13.57
2023-01-01T03:38:07.891Z,15.98
2023-01-01T03:40:38.398Z,14.40
2023-01-01T03:43:13.958Z,15.05
2023-01-01T03:45:46.065Z,13.90
2023-01-01T03:48:13.479Z,13.05
2023-01-01T03:51:04.361Z,14.63
2023-01-01T03:53:42.975Z,13.10
2023-01-01T03:56:17.956Z,13.90
2023-01-01T03:59:02.798Z,12.18
2023-01-01T04:01:38.856Z,11.15
2023-01-01T04:04:07.877Z,12.75
2023-01-01T04:06:35.327Z,12.27
2023-01-01T04:09:04.670Z,10.23
2023-01-01T04:12:09.003Z,10.98
2023-01-01T04:14:41.914Z,10.95
2023-01-01T04:17:10.883Z,9.38
2023-01-01T04:19:40.771Z,10.25
2023-01-01T04:22:08.107Z,9.48
2023-01-01T04:24:35.463Z,8.95
2023-01-01T04:27:02.857Z,8.68
2023-01-01T04:29:30.152Z,7.53
2023-01-01T04:31:59.845Z,7.68
2023-01-01T04:34:27.442Z,7.65
2023-01-01T04:36:54.832Z,7.53
2023-01-01T04:39:22.001Z,5.93
2023-01-01T04:41:49.518Z,7.15
2023-01-01T04:44:18.960Z,5.30
2023-01-01T04:46:48.539Z,5.43
2023-01-01T04:49:17.511Z,5.18
2023-01-01T04:51:44.652Z,5.15
2023-01-01T04:54:22.752Z,5.00
2023-01-01T04:56:52.441Z,5.00
2023-01-01T04:59:19.801Z,4.90
2023-01-01T05:01:47.111Z,5.18
2023-01-01T05:04:16.656Z,4.70
2023-01-01T05:06:44.468Z,5.05
2023-01-01T05:09:13.907Z,4.78
2023-01-01T05:11:41.323Z,5.05
2023-01-01T05:14:08.503Z,4.85
2023-01-01T05:16:38.750Z,4.70
2023-01-01T05:19:11.750Z,5.60
2023-01-01T05:21:43.039Z,4.15
2023-01-01T05:24:10.565Z,4.50
2023-01-01T05:26:41.415Z,4.32
2023-01-01T05:29:16.174Z,4.40
2023-01-01T05:31:44.835Z,4.50
2023-01-01T05:34:18.128Z,4.65
2023-01-01T05:36:48.062Z,4.80
2023-01-01T05:39:15.253Z,3.53
2023-01-01T05:41:43.441Z,4.13
2023-01-01T05:44:11.631Z,5.05
2023-01-01T05:46:39.292Z,4.53
2023-01-01T05:49:09.664Z,4.43
2023-01-01T05:54:03.172Z,4.00
2023-01-01T05:56:33.572Z,6.00
2023-01-01T05:59:04.650Z,4.00
2023-01-01T06:01:32.293Z,3.70
2023-01-01T06:04:00.121Z,4.20
2023-01-01T06:06:33.871Z,4.25
2023-01-01T06:09:05.002Z,3.25
2023-01-01T06:11:32.908Z,4.97
2023-01-01T06:14:01.426Z,4.93
2023-01-01T06:16:31.936Z,4.20
2023-01-01T06:18:59.898Z,4.28
2023-01-01T06:21:32.795Z,6.90
2023-01-01T06:24:00.937Z,5.47
2023-01-01T06:26:33.193Z,4.00
2023-01-01T06:29:02.724Z,4.55
2023-01-01T06:31:35.514Z,4.85
2023-01-01T06:34:10.819Z,4.70
2023-01-01T06:36:40.477Z,5.00
2023-01-01T06:39:10.078Z,4.85
2023-01-01T06:41:38.347Z,5.93
2023-01-01T06:44:08.290Z,5.82
2023-01-01T06:46:36.740Z,4.93
2023-01-01T06:49:11.188Z,5.38
2023-01-01T06:51:41.232Z,3.97
2023-01-01T06:54:13.721Z,4.30
2023-01-01T06:56:41.406Z,4.20
2023-01-01T06:59:15.532Z,4.55
2023-01-01T07:01:46.992Z,4.00
2023-01-01T07:04:18.310Z,4.22
2023-01-01T07:06:47.967Z,4.75
2023-01-01T07:09:18.463Z,4.10
2023-01-01T07:11:49.085Z,3.40
2023-01-01T07:14:18.975Z,5.65
2023-01-01T07:16:46.274Z,4.88
2023-01-01T07:19:19.172Z,3.47
2023-01-01T07:21:52.959Z,3.63
2023-01-01T07:24:20.544Z,3.78
2023-01-01T07:26:50.554Z,3.50
2023-01-01T07:29:24.969Z,4.43
2023-01-01T07:31:52.482Z,5.47
2023-01-01T07:34:19.969Z,3.60
2023-01-01T07:36:47.448Z,3.90
2023-01-01T07:39:14.626Z,3.67
2023-01-01T07:41:44.587Z,3.90
2023-01-01T07:44:14.052Z,3.28
2023-01-01T07:46:41.201Z,3.95
2023-01-01T07:49:10.059Z,4.00
2023-01-01T07:51:37.287Z,3.13
2023-01-01T07:54:10.327Z,3.40
2023-01-01T07:56:38.019Z,5.97
2023-01-01T07:59:05.562Z,3.35
2023-01-01T08:01:36.242Z,3.60
2023-01-01T08:04:05.396Z,4.75
2023-01-01T08:06:32.556Z,3.85
2023-01-01T08:09:02.925Z,3.70
2023-01-01T08:11:31.311Z,3.83
2023-01-01T08:13:58.714Z,3.80
2023-01-01T08:16:26.150Z,3.70
2023-01-01T08:18:53.486Z,3.78
2023-01-01T08:21:30.909Z,3.03
2023-01-01T08:24:02.935Z,3.67
2023-01-01T08:26:35.949Z,3.38
2023-01-01T08:29:06.142Z,3.83
2023-01-01T08:31:34.015Z,3.90
2023-01-01T08:34:05.329Z,3.58
2023-01-01T08:36:40.616Z,3.83
2023-01-01T08:39:16.240Z,3.60
2023-01-01T08:41:46.531Z,4.15
2023-01-01T08:44:14.150Z,3.45
2023-01-01T08:46:41.381Z,3.83
2023-01-01T08:49:13.538Z,3.30
2023-01-01T08:51:43.916Z,3.67
2023-01-01T08:54:11.379Z,3.50
2023-01-01T08:56:38.707Z,3.38
2023-01-01T08:59:09.087Z,3.10
2023-01-01T09:01:45.808Z,4.10
2023-01-01T09:04:15.701Z,3.08
2023-01-01T09:06:43.591Z,2.80
2023-01-01T09:09:14.707Z,3.70
2023-01-01T09:11:54.988Z,4.32
2023-01-01T09:14:22.838Z,3.78
2023-01-01T09:16:52.799Z,3.47
2023-01-01T09:19:20.156Z,3.88
2023-01-01T09:21:49.683Z,3.25
2023-01-01T09:24:17.029Z,2.92
2023-01-01T09:26:46.658Z,3.83
2023-01-01T09:29:20.795Z,3.38
2023-01-01T09:31:52.041Z,2.83
2023-01-01T09:34:19.620Z,3.20
2023-01-01T09:36:49.608Z,2.78
2023-01-01T09:39:22.547Z,2.72
2023-01-01T09:42:21.141Z,3.20
2023-01-01T09:45:21.924Z,3.58
2023-01-01T09:47:54.238Z,3.17
2023-01-01T09:50:43.439Z,3.35
2023-01-01T09:53:17.873Z,3.08
2023-01-01T09:55:52.892Z,2.88
2023-01-01T09:58:28.923Z,3.50
2023-01-01T10:01:01.864Z,3.63
2023-01-01T10:03:38.120Z,2.90
2023-01-01T10:06:29.109Z,2.83
2023-01-01T10:09:22.395Z,2.95
2023-01-01T10:12:22.233Z,3.10
2023-01-01T10:15:00.744Z,2.83
2023-01-01T10:17:48.397Z,3.47
2023-01-01T10:20:33.556Z,2.97
2023-01-01T10:23:23.338Z,2.65
2023-01-01T10:25:50.793Z,3.30
2023-01-01T10:28:42.336Z,2.85
2023-01-01T10:31:22.917Z,2.75
2023-01-01T10:33:52.447Z,3.90
2023-01-01T10:36:23.130Z,3.47
2023-01-01T10:38:54.513Z,2.85
2023-01-01T10:41:21.911Z,2.72
2023-01-01T10:43:49.482Z,3.25
2023-01-01T10:46:31.584Z,3.63
2023-01-01T10:49:13.456Z,2.92
2023-01-01T10:51:47.667Z,2.92
2023-01-01T10:54:29.492Z,3.00
2023-01-01T10:56:58.853Z,3.47
2023-01-01T10:59:45.609Z,3.65
2023-01-01T11:02:22.960Z,1.92
2023-01-01T11:04:52.569Z,3.65
2023-01-01T11:07:31.901Z,3.13
2023-01-01T11:10:09.497Z,2.88
2023-01-01T11:13:04.144Z,2.97
2023-01-01T11:15:31.693Z,2.90
2023-01-01T11:18:36.040Z,3.03
2023-01-01T11:21:06.731Z,2.67
2023-01-01T11:23:42.340Z,3.03
2023-01-01T11:26:14.693Z,2.22
2023-01-01T11:28:41.996Z,2.80
2023-01-01T11:31:15.058Z,3.38
2023-01-01T11:33:54.987Z,3.00
2023-01-01T11:36:34.125Z,2.47
2023-01-01T11:39:17.416Z,3.33
2023-01-01T11:41:47.976Z,2.35
2023-01-01T11:44:32.532Z,2.90
2023-01-01T11:47:03.896Z,2.65
2023-01-01T11:49:31.564Z,2.60
2023-01-01T11:51:59.205Z,3.03
2023-01-01T11:54:40.093Z,3.20
2023-01-01T11:57:18.191Z,3.17
2023-01-01T12:00:03.777Z,2.92
2023-01-01T12:03:01.238Z,2.60
2023-01-01T12:05:49.095Z,2.90
2023-01-01T12:08:27.184Z,3.03
2023-01-01T12:11:01.647Z,3.13
2023-01-01T12:13:43.187Z,2.25
2023-01-01T12:16:18.488Z,2.83
2023-01-01T12:19:01.901Z,2.60
2023-01-01T12:21:32.644Z,2.95
2023-01-01T12:23:59.956Z,2.53
2023-01-01T12:26:45.515Z,3.28
2023-01-01T12:30:14.725Z,3.50
2023-01-01T12:32:53.727Z,2.63
2023-01-01T12:35:36.801Z,3.03
2023-01-01T12:38:38.119Z,2.80
2023-01-01T12:41:26.438Z,2.80
2023-01-01T12:44:21.336Z,2.60
2023-01-01T12:47:07.273Z,2.85
2023-01-01T12:49:55.728Z,2.80
2023-01-01T12:52:41.968Z,3.08
2023-01-01T12:55:38.580Z,2.45
2023-01-01T12:58:13.218Z,2.92
2023-01-01T13:00:48.258Z,2.88
2023-01-01T13:03:30.283Z,2.90
2023-01-01T13:05:59.190Z,2.53
2023-01-01T13:08:28.827Z,2.30
2023-01-01T13:10:58.839Z,2.72
2023-01-01T13:13:26.388Z,2.05
2023-01-01T13:15:56.955Z,2.55
2023-01-01T13:18:24.261Z,2.58
2023-01-01T13:21:16.465Z,2.35
2023-01-01T13:23:45.668Z,2.38
2023-01-01T13:26:18.973Z,2.50
2023-01-01T13:28:57.359Z,2.88
2023-01-01T13:31:42.671Z,3.03
2023-01-01T13:34:35.587Z,2.63
2023-01-01T13:37:14.891Z,2.63
2023-01-01T13:39:56.228Z,2.85
2023-01-01T13:42:59.208Z,2.58
2023-01-01T13:46:10.599Z,3.92
2023-01-01T13:48:54.922Z,3.00
2023-01-01T13:52:04.361Z,3.00
2023-01-01T13:54:45.085Z,2.03
2023-01-01T13:57:40.661Z,3.13
2023-01-01T14:00:25.130Z,2.28
2023-01-01T14:03:03.182Z,3.15
2023-01-01T14:05:37.089Z,3.10
2023-01-01T14:08:09.901Z,3.00
2023-01-01T14:10:43.516Z,3.63
2023-01-01T14:13:17.448Z,2.70
2023-01-01T14:15:53.417Z,3.03
2023-01-01T14:18:26.065Z,2.60
2023-01-01T14:20:56.029Z,2.58
2023-01-01T14:23:29.227Z,2.67
2023-01-01T14:26:03.989Z,2.90
2023-01-01T14:28:34.042Z,2.60
2023-01-01T14:31:10.621Z,2.28
2023-01-01T14:33:39.648Z,2.20
2023-01-01T14:36:22.889Z,2.45
2023-01-01T14:38:53.315Z,2.40
2023-01-01T14:41:32.687Z,2.40
2023-01-01T14:44:06.778Z,2.42
2023-01-01T14:46:39.596Z,2.75
2023-01-01T14:49:15.279Z,2.95
2023-01-01T14:51:46.634Z,2.58
2023-01-01T14:54:19.803Z,2.92
2023-01-01T14:56:50.471Z,2.15
2023-01-01T14:59:31.006Z,2.78
2023-01-01T15:02:22.401Z,3.15
2023-01-01T15:04:59.074Z,2.33
2023-01-01T15:07:33.891Z,2.60
2023-01-01T15:10:03.216Z,3.03
2023-01-01T15:12:57.613Z,2.65
2023-01-01T15:15:41.784Z,2.47
2023-01-01T15:18:41.180Z,2.75
2023-01-01T15:21:21.556Z,2.42
2023-01-01T15:23:53.098Z,2.63
2023-01-01T15:26:47.617Z,2.33
2023-01-01T15:29:39.456Z,2.15
2023-01-01T15:32:13.661Z,2.95
2023-01-01T15:34:52.809Z,2.70
2023-01-01T15:37:26.182Z,1.75
2023-01-01T15:39:57.635Z,2.92
2023-01-01T15:42:35.064Z,2.20
2023-01-01T15:45:30.338Z,2.42
2023-01-01T15:48:19.422Z,3.85
2023-01-01T15:50:49.821Z,2.50
2023-01-01T15:53:27.195Z,2.67
2023-01-01T15:56:03.640Z,2.28
2023-01-01T15:58:35.138Z,2.45
2023-01-01T16:01:05.356Z,2.22
2023-01-01T16:03:35.701Z,2.17
2023-01-01T16:06:03.239Z,2.50
2023-01-01T16:08:34.734Z,2.55
2023-01-01T16:11:02.235Z,3.47
2023-01-01T16:13:29.300Z,4.18
2023-01-01T16:16:04.428Z,4.93
2023-01-01T16:18:37.192Z,5.32
2023-01-01T16:21:05.824Z,4.00
2023-01-01T16:23:35.681Z,5.18
2023-01-01T16:26:02.959Z,4.68
2023-01-01T16:28:30.427Z,4.60
2023-01-01T16:30:58.180Z,4.78
2023-01-01T16:33:25.647Z,4.32
2023-01-01T16:35:53.134Z,4.63
2023-01-01T16:38:23.502Z,3.90
2023-01-01T16:40:51.583Z,4.47
2023-01-01T16:43:19.001Z,3.90
2023-01-01T16:45:46.479Z,3.72
2023-01-01T16:48:18.293Z,3.50
2023-01-01T16:50:52.159Z,3.72
2023-01-01T16:53:19.552Z,3.20
2023-01-01T16:55:53.238Z,3.78
2023-01-01T16:58:48.384Z,4.00
2023-01-01T17:01:09.211Z,4.20
2023-01-01T17:03:39.254Z,3.30
2023-01-01T17:06:11.480Z,4.50
2023-01-01T17:08:39.197Z,3.65
2023-01-01T17:11:17.463Z,3.40
2023-01-01T17:13:47.160Z,3.78
2023-01-01T17:16:25.443Z,3.90
2023-01-01T17:21:46.229Z,4.28
2023-01-01T17:24:15.552Z,4.43
2023-01-01T17:26:43.017Z,4.90
2023-01-01T17:29:12.818Z,5.10
2023-01-01T17:31:44.227Z,3.83
2023-01-01T17:34:14.788Z,4.30
2023-01-01T17:36:43.792Z,5.57
2023-01-01T17:39:13.635Z,4.03
2023-01-01T17:41:42.504Z,3.95
2023-01-01T17:44:11.168Z,5.03
2023-01-01T17:46:44.138Z,4.13
2023-01-01T17:49:15.540Z,4.35
2023-01-01T17:51:49.840Z,5.10
2023-01-01T17:54:20.370Z,4.90
2023-01-01T17:56:48.033Z,3.92
2023-01-01T17:59:18.776Z,4.20
2023-01-01T18:01:47.481Z,4.65
2023-01-01T18:04:20.934Z,3.83
2023-01-01T18:06:54.782Z,4.13
2023-01-01T18:09:25.537Z,3.80
2023-01-01T18:11:57.112Z,4.40
2023-01-01T18:14:30.713Z,4.57
2023-01-01T18:17:09.097Z,4.60
2023-01-01T18:19:43.008Z,4.55
2023-01-01T18:22:15.913Z,5.53
2023-01-01T18:24:46.214Z,3.60
2023-01-01T18:27:13.740Z,4.13
2023-01-01T18:29:43.072Z,3.90
2023-01-01T18:32:28.724Z,5.72
2023-01-01T18:35:03.663Z,5.28
2023-01-01T18:37:39.674Z,5.45
2023-01-01T18:40:21.681Z,3.67
2023-01-01T18:42:58.083Z,4.55
2023-01-01T18:45:28.722Z,4.88
2023-01-01T18:47:56.099Z,5.03
2023-01-01T18:50:32.008Z,4.28
2023-01-01T18:53:14.143Z,4.90
2023-01-01T18:55:41.561Z,3.88
2023-01-01T18:58:17.332Z,6.20
2023-01-01T19:00:50.305Z,5.40
2023-01-01T19:03:27.977Z,4.10
2023-01-01T19:05:56.942Z,4.93
2023-01-01T19:08:28.338Z,4.20
2023-01-01T19:11:01.927Z,4.93
2023-01-01T19:13:36.033Z,3.88
2023-01-01T19:16:12.790Z,5.63
2023-01-01T19:18:45.251Z,5.30
2023-01-01T19:21:12.647Z,5.05
2023-01-01T19:23:46.375Z,6.63
2023-01-01T19:26:19.558Z,6.25
2023-01-01T19:28:53.300Z,3.75
2023-01-01T19:31:20.714Z,5.35
2023-01-01T19:33:52.654Z,4.60
2023-01-01T19:36:24.906Z,5.25
2023-01-01T19:38:54.469Z,4.60
2023-01-01T19:41:24.956Z,4.10
2023-01-01T19:43:52.190Z,4.38
2023-01-01T19:46:19.599Z,4.80
2023-01-01T19:48:52.166Z,3.75
2023-01-01T19:51:22.400Z,4.88
2023-01-01T19:53:54.152Z,4.32
2023-01-01T19:56:22.372Z,5.22
2023-01-01T19:58:49.726Z,5.00
2023-01-01T20:01:19.360Z,4.70
2023-01-01T20:03:56.479Z,4.07
2023-01-01T20:06:25.717Z,4.43
2023-01-01T20:08:57.871Z,4.78
2023-01-01T20:11:29.591Z,5.37
2023-01-01T20:13:59.622Z,4.60
2023-01-01T20:16:27.285Z,4.05
2023-01-01T20:18:54.832Z,3.90
2023-01-01T20:21:46.191Z,4.78
2023-01-01T20:24:17.258Z,4.60
2023-01-01T20:26:45.624Z,4.30
2023-01-01T20:29:19.885Z,4.28
2023-01-01T20:31:53.902Z,4.85
2023-01-01T20:34:22.262Z,5.40
2023-01-01T20:37:08.212Z,4.65
2023-01-01T20:39:40.631Z,4.47
2023-01-01T20:42:10.503Z,4.82
2023-01-01T20:44:42.783Z,4.40
2023-01-01T20:47:13.819Z,4.90
2023-01-01T20:49:42.109Z,4.57
2023-01-01T20:52:09.736Z,4.57
2023-01-01T20:54:37.202Z,5.03
2023-01-01T20:57:04.803Z,4.95
2023-01-01T20:59:37.617Z,6.03
2023-01-01T21:04:40.095Z,5.60
2023-01-01T21:07:12.204Z,7.00
2023-01-01T21:09:41.144Z,5.78
2023-01-01T21:12:13.556Z,6.28
2023-01-01T21:14:41.699Z,6.63
2023-01-01T21:17:22.786Z,6.95
2023-01-01T21:19:56.843Z,5.55
2023-01-01T21:22:24.223Z,8.02
2023-01-01T21:24:55.368Z,6.07
2023-01-01T21:27:33.283Z,6.88
2023-01-01T21:30:01.147Z,6.57
2023-01-01T21:32:30.881Z,6.68
2023-01-01T21:34:58.010Z,6.00
2023-01-01T21:37:47.928Z,5.97
2023-01-01T21:40:30.676Z,5.97
2023-01-01T21:43:17.074Z,8.18
2023-01-01T21:45:46.594Z,7.35
2023-01-01T21:48:23.943Z,6.10
2023-01-01T21:50:54.927Z,6.47
2023-01-01T21:53:35.985Z,6.07
2023-01-01T21:56:27.194Z,6.07
2023-01-01T21:59:18.810Z,6.28
2023-01-01T22:01:48.483Z,5.63
2023-01-01T22:04:26.477Z,5.82
2023-01-01T22:06:59.961Z,7.05
2023-01-01T22:09:34.386Z,6.60
2023-01-01T22:12:27.226Z,6.72
2023-01-01T22:14:58.153Z,6.10
2023-01-01T22:17:33.383Z,6.13
2023-01-01T22:20:23.212Z,6.93
2023-01-01T22:22:50.880Z,6.90
2023-01-01T22:25:24.581Z,6.43
2023-01-01T22:27:51.745Z,5.82
2023-01-01T22:30:19.049Z,4.88
2023-01-01T22:32:51.782Z,6.30
2023-01-01T22:35:25.756Z,5.07
2023-01-01T22:37:57.910Z,7.22
2023-01-01T22:40:33.179Z,5.55
2023-01-01T22:43:09.879Z,5.72
2023-01-01T22:45:45.981Z,7.60
2023-01-01T22:48:38.411Z,5.35
2023-01-01T22:51:11.860Z,5.82
2023-01-01T22:53:39.090Z,6.22
2023-01-01T22:56:06.625Z,5.90
2023-01-01T22:58:33.792Z,5.30
2023-01-01T23:01:01.147Z,6.35
2023-01-01T23:03:28.446Z,6.47
2023-01-01T23:05:58.871Z,7.03
2023-01-01T23:08:31.167Z,6.22
2023-01-01T23:11:02.605Z,6.93
2023-01-01T23:13:48.502Z,4.93
2023-01-01T23:16:16.010Z,5.78
2023-01-01T23:18:43.144Z,5.70
2023-01-01T23:21:26.727Z,6.22
2023-01-01T23:23:57.588Z,6.25
2023-01-01T23:26:25.774Z,6.38
2023-01-01T23:28:54.883Z,5.10
2023-01-01T23:31:27.206Z,5.13
2023-01-01T23:33:57.238Z,5.20
2023-01-01T23:36:26.251Z,6.05
2023-01-01T23:38:53.459Z,5.93
2023-01-01T23:41:22.375Z,5.65
2023-01-01T23:43:51.953Z,5.93
2023-01-01T23:46:19.693Z,4.78
2023-01-01T23:48:47.873Z,5.95
2023-01-01T23:51:16.455Z,5.57
2023-01-01T23:53:46.494Z,5.57
2023-01-01T23:56:16.354Z,5.13
2023-01-01T23:58:46.220Z,5.28
